Time;durP1;ratioP1;P1;durP2;ratioP2;P2;SDS_P1;SDS_P2;PMS_P1;PMS_P2;Temp;Humidity;BMP_temperature;BMP_pressure;BME280_temperature;BME280_humidity;BME280_pressure;Samples;Min_cycle;Max_cycle;Signal;HPM_P1;HPM_P2
2024/03/30 00:00:56;;;;;;;0.70;0.70;;;20.70;1.00;;;;;;2611698;54;20417;-60
2024/03/30 00:03:22;;;;;;;0.70;0.63;;;20.70;1.00;;;;;;2612181;54;20423;-59
2024/03/30 00:05:58;;;;;;;0.70;0.60;;;20.70;1.00;;;;;;2612270;54;20669;-59
2024/03/30 00:08:24;;;;;;;0.70;0.70;;;20.70;1.00;;;;;;2611445;54;20431;-58
2024/03/30 00:11:01;;;;;;;0.70;0.60;;;20.70;1.00;;;;;;2613095;54;20412;-59
2024/03/30 00:13:27;;;;;;;0.70;0.60;;;20.70;1.00;;;;;;2612987;54;20174;-59
2024/03/30 00:15:54;;;;;;;0.70;0.70;;;20.70;1.00;;;;;;2612260;50;20434;-59
2024/03/30 00:18:19;;;;;;;0.70;0.70;;;20.70;1.00;;;;;;2612632;54;20419;-58
2024/03/30 00:20:45;;;;;;;2.50;2.30;;;20.70;1.00;;;;;;2613320;54;21497;-60
2024/03/30 00:23:11;;;;;;;0.70;0.60;;;20.70;1.00;;;;;;2613731;39;20593;-60
2024/03/30 00:25:36;;;;;;;0.70;0.63;;;20.70;1.00;;;;;;2614343;39;20588;-64
2024/03/30 00:28:02;;;;;;;0.70;0.70;;;20.70;1.00;;;;;;2613750;54;20162;-67
2024/03/30 00:30:30;;;;;;;0.70;0.70;;;20.70;1.00;;;;;;2613869;47;20174;-65
2024/03/30 00:32:56;;;;;;;0.60;0.50;;;20.70;1.00;;;;;;2612746;54;20175;-65
2024/03/30 00:35:22;;;;;;;0.70;0.60;;;20.70;1.00;;;;;;2613814;54;20426;-74
2024/03/30 00:37:50;;;;;;;0.70;0.70;;;20.70;1.00;;;;;;2614847;39;20273;-74
2024/03/30 00:40:16;;;;;;;0.70;0.60;;;20.70;1.00;;;;;;2614627;54;20170;-72
2024/03/30 00:42:42;;;;;;;0.70;0.60;;;20.70;1.00;;;;;;2613343;39;20820;-72
2024/03/30 00:45:07;;;;;;;0.70;0.60;;;20.70;1.00;;;;;;2614195;54;20174;-60
2024/03/30 00:47:33;;;;;;;0.70;0.70;;;20.70;1.00;;;;;;2613342;51;20150;-60
2024/03/30 00:49:59;;;;;;;0.70;0.70;;;20.70;1.00;;;;;;2613748;54;20170;-60
2024/03/30 00:52:24;;;;;;;0.70;0.70;;;20.70;1.00;;;;;;2613556;54;20684;-60
2024/03/30 00:54:50;;;;;;;0.70;0.70;;;20.70;1.00;;;;;;2613160;39;20632;-59
2024/03/30 00:57:16;;;;;;;0.70;0.60;;;20.70;1.00;;;;;;2613518;54;20191;-60
2024/03/30 00:59:41;;;;;;;0.70;0.70;;;20.70;1.00;;;;;;2613235;47;20520;-61
2024/03/30 01:02:07;;;;;;;0.70;0.60;;;20.70;1.00;;;;;;2612813;54;20175;-60
2024/03/30 01:04:34;;;;;;;0.70;0.70;;;20.70;1.00;;;;;;2612936;54;20206;-60
2024/03/30 01:07:01;;;;;;;0.70;0.70;;;20.70;1.00;;;;;;2612808;54;20171;-60
2024/03/30 01:09:27;;;;;;;0.70;0.60;;;20.70;1.00;;;;;;2612570;54;20426;-59
2024/03/30 01:11:53;;;;;;;0.70;0.60;;;20.70;1.00;;;;;;2611517;47;21025;-59
2024/03/30 01:14:22;;;;;;;0.70;0.70;;;20.60;1.00;;;;;;2613584;47;20199;-60
2024/03/30 01:16:49;;;;;;;0.70;0.60;;;20.60;1.00;;;;;;2613506;54;20420;-60
2024/03/30 01:19:15;;;;;;;0.70;0.60;;;20.60;1.00;;;;;;2612938;46;20427;-60
2024/03/30 01:21:41;;;;;;;0.70;0.60;;;20.60;1.00;;;;;;2613983;39;20849;-61
2024/03/30 01:24:07;;;;;;;0.93;0.93;;;20.60;1.00;;;;;;2613345;39;20864;-61
2024/03/30 01:26:39;;;;;;;0.60;0.50;;;20.60;1.00;;;;;;2613570;50;20447;-59
2024/03/30 01:29:07;;;;;;;0.70;0.60;;;20.60;1.00;;;;;;2613494;47;20918;-60
2024/03/30 01:31:33;;;;;;;0.70;0.60;;;20.60;1.00;;;;;;2614075;31;20918;-61
2024/03/30 01:33:59;;;;;;;0.60;0.60;;;20.60;1.00;;;;;;2613473;47;20416;-61
2024/03/30 01:36:25;;;;;;;0.70;0.50;;;20.60;1.00;;;;;;2613702;39;20537;-73
2024/03/30 01:38:51;;;;;;;0.70;0.60;;;20.70;1.00;;;;;;2613410;54;20169;-72
2024/03/30 01:41:17;;;;;;;0.70;0.60;;;20.70;1.00;;;;;;2613968;39;20829;-73
2024/03/30 01:43:42;;;;;;;0.70;0.60;;;20.60;1.00;;;;;;2612729;54;20199;-73
2024/03/30 01:46:09;;;;;;;0.70;0.60;;;20.60;1.00;;;;;;2613314;54;20198;-59
2024/03/30 01:48:35;;;;;;;0.70;0.70;;;20.60;1.00;;;;;;2613959;54;20418;-60
2024/03/30 01:51:01;;;;;;;0.70;0.67;;;20.60;1.00;;;;;;2613387;47;20434;-61
2024/03/30 01:53:29;;;;;;;0.70;0.60;;;20.60;1.00;;;;;;2612802;54;20446;-60
2024/03/30 01:55:55;;;;;;;0.70;0.70;;;20.60;1.00;;;;;;2613501;47;20510;-62
2024/03/30 01:58:24;;;;;;;0.70;0.50;;;20.60;1.00;;;;;;2613892;54;20467;-62
2024/03/30 02:00:53;;;;;;;0.70;0.60;;;20.60;1.00;;;;;;2612577;54;20422;-62
2024/03/30 02:03:21;;;;;;;0.70;0.60;;;20.60;1.00;;;;;;2611255;51;20438;-62
2024/03/30 02:05:48;;;;;;;0.70;0.60;;;20.60;1.00;;;;;;2612759;39;20794;-63
2024/03/30 02:08:14;;;;;;;0.70;0.60;;;20.60;1.00;;;;;;2612867;54;20407;-62
2024/03/30 02:10:41;;;;;;;0.70;0.60;;;20.60;1.00;;;;;;2613126;54;20404;-62
2024/03/30 02:13:07;;;;;;;0.70;0.63;;;20.60;1.00;;;;;;2612984;54;20388;-62
2024/03/30 02:15:33;;;;;;;1.40;1.30;;;20.60;1.00;;;;;;2613181;47;20514;-62
2024/03/30 02:17:59;;;;;;;0.70;0.63;;;20.60;1.00;;;;;;2613447;54;20396;-61
2024/03/30 02:20:25;;;;;;;0.70;0.67;;;20.60;1.00;;;;;;2613683;54;20150;-61
2024/03/30 02:22:55;;;;;;;0.70;0.70;;;20.60;1.00;;;;;;2612952;54;20965;-60
2024/03/30 02:25:22;;;;;;;0.70;0.60;;;20.60;1.00;;;;;;2612895;54;20166;-62
2024/03/30 02:27:49;;;;;;;0.70;0.60;;;20.60;1.00;;;;;;2613715;39;20810;-62
2024/03/30 02:30:24;;;;;;;0.70;0.60;;;20.60;1.00;;;;;;2613325;54;20515;-61
2024/03/30 02:32:51;;;;;;;0.90;0.90;;;20.60;1.00;;;;;;2613332;39;20799;-61
2024/03/30 02:35:17;;;;;;;0.70;0.60;;;20.60;1.00;;;;;;2612916;39;20885;-62
2024/03/30 02:37:45;;;;;;;0.70;0.57;;;20.60;1.00;;;;;;2612842;46;20439;-61
2024/03/30 02:40:11;;;;;;;0.70;0.60;;;20.60;1.00;;;;;;2613267;54;20403;-62
2024/03/30 02:42:37;;;;;;;0.70;0.60;;;20.60;1.00;;;;;;2613083;39;20844;-62
2024/03/30 02:45:03;;;;;;;0.70;0.70;;;20.60;1.00;;;;;;2613461;47;20423;-66
2024/03/30 02:47:28;;;;;;;0.70;0.70;;;20.60;1.00;;;;;;2612983;47;20185;-65
2024/03/30 02:49:54;;;;;;;0.70;0.60;;;20.60;1.00;;;;;;2612959;54;20518;-65
2024/03/30 02:52:19;;;;;;;0.70;0.60;;;20.60;1.00;;;;;;2613079;54;20707;-66
2024/03/30 02:54:45;;;;;;;0.70;0.60;;;20.60;1.00;;;;;;2613746;39;20782;-72
2024/03/30 02:57:11;;;;;;;0.70;0.50;;;20.60;1.00;;;;;;2613361;54;20162;-73
2024/03/30 02:59:36;;;;;;;0.70;0.70;;;20.60;1.00;;;;;;2613043;54;20162;-72
2024/03/30 03:02:02;;;;;;;0.70;0.70;;;20.60;1.00;;;;;;2613168;50;20774;-72
2024/03/30 03:04:28;;;;;;;0.70;0.67;;;20.60;1.00;;;;;;2613115;54;20267;-66
2024/03/30 03:06:54;;;;;;;0.70;0.57;;;20.60;1.00;;;;;;2612030;54;20266;-60
2024/03/30 03:09:19;;;;;;;0.70;0.60;;;20.60;1.00;;;;;;2612904;54;20167;-60
2024/03/30 03:11:46;;;;;;;0.70;0.70;;;20.60;1.00;;;;;;2612935;54;20163;-60
2024/03/30 03:14:11;;;;;;;0.70;0.60;;;20.60;1.00;;;;;;2613129;54;20163;-60
2024/03/30 03:16:37;;;;;;;0.70;0.60;;;20.60;1.00;;;;;;2613196;54;20460;-61
2024/03/30 03:19:02;;;;;;;0.70;0.60;;;20.60;1.00;;;;;;2612325;54;20169;-61
2024/03/30 03:21:28;;;;;;;0.70;0.70;;;20.60;1.00;;;;;;2613096;54;20169;-61
2024/03/30 03:23:54;;;;;;;0.70;0.70;;;20.60;1.00;;;;;;2612168;51;20176;-62
2024/03/30 03:26:19;;;;;;;0.70;0.70;;;20.60;1.00;;;;;;2612171;54;20257;-60
2024/03/30 03:28:45;;;;;;;0.70;0.70;;;20.50;1.00;;;;;;2613370;54;20163;-60
2024/03/30 03:31:11;;;;;;;0.70;0.70;;;20.50;1.00;;;;;;2612657;39;20572;-60
2024/03/30 03:33:36;;;;;;;0.70;0.70;;;20.50;1.00;;;;;;2612928;54;20170;-60
2024/03/30 03:36:02;;;;;;;0.70;0.60;;;20.50;1.00;;;;;;2613218;47;20223;-60
2024/03/30 03:38:28;;;;;;;0.70;0.70;;;20.60;1.00;;;;;;2612237;54;20166;-58
2024/03/30 03:40:56;;;;;;;0.70;0.70;;;20.60;1.00;;;;;;2613158;54;20203;-61
2024/03/30 03:43:22;;;;;;;0.70;0.70;;;20.50;1.00;;;;;;2612973;47;20254;-61
2024/03/30 03:45:49;;;;;;;1.07;1.07;;;20.50;1.00;;;;;;2612228;54;20395;-61
2024/03/30 03:48:14;;;;;;;0.70;0.70;;;20.50;1.00;;;;;;2613860;39;20558;-60
2024/03/30 03:50:41;;;;;;;0.70;0.60;;;20.50;1.00;;;;;;2612116;54;20431;-60
2024/03/30 03:53:08;;;;;;;0.70;0.60;;;20.50;1.00;;;;;;2613190;39;21024;-61
2024/03/30 03:55:34;;;;;;;0.70;0.70;;;20.50;1.00;;;;;;2612567;54;20423;-66
2024/03/30 03:58:00;;;;;;;0.70;0.60;;;20.50;1.00;;;;;;2612973;47;20446;-65
2024/03/30 04:00:26;;;;;;;0.70;0.70;;;20.50;1.00;;;;;;2612309;39;21343;-65
2024/03/30 04:02:52;;;;;;;0.70;0.70;;;20.50;1.00;;;;;;2612241;54;20412;-66
2024/03/30 04:05:18;;;;;;;0.70;0.60;;;20.50;1.00;;;;;;2612698;54;20470;-65
2024/03/30 04:07:44;;;;;;;0.70;0.70;;;20.50;1.00;;;;;;2612656;47;20298;-67
2024/03/30 04:10:14;;;;;;;0.70;0.60;;;20.50;1.00;;;;;;2612940;54;20431;-66
2024/03/30 04:12:39;;;;;;;0.70;0.60;;;20.50;1.00;;;;;;2612040;54;20771;-66
2024/03/30 04:15:05;;;;;;;0.70;0.60;;;20.50;1.00;;;;;;2613094;54;20435;-65
2024/03/30 04:17:34;;;;;;;0.70;0.60;;;20.50;1.00;;;;;;2612224;54;20282;-65
2024/03/30 04:20:00;;;;;;;0.70;0.70;;;20.50;1.00;;;;;;2613702;39;20810;-66
2024/03/30 04:22:26;;;;;;;1.57;1.47;;;20.50;1.00;;;;;;2611660;54;20539;-65
2024/03/30 04:24:51;;;;;;;0.70;0.67;;;20.50;1.00;;;;;;2612784;54;20154;-64
2024/03/30 04:27:17;;;;;;;0.70;0.70;;;20.50;1.00;;;;;;2611813;47;20161;-66
2024/03/30 04:29:43;;;;;;;0.70;0.60;;;20.50;1.00;;;;;;2613362;39;20666;-65
2024/03/30 04:32:09;;;;;;;0.70;0.70;;;20.50;1.00;;;;;;2612822;54;20205;-66
2024/03/30 04:34:36;;;;;;;0.70;0.67;;;20.50;1.00;;;;;;2613199;39;20274;-66
2024/03/30 04:37:02;;;;;;;0.70;0.70;;;20.50;1.00;;;;;;2612556;54;20424;-66
2024/03/30 04:39:28;;;;;;;0.70;0.70;;;20.50;1.00;;;;;;2613060;54;20448;-67
2024/03/30 04:41:54;;;;;;;0.70;0.60;;;20.50;1.00;;;;;;2612406;54;20937;-65
2024/03/30 04:44:20;;;;;;;0.70;0.60;;;20.50;1.00;;;;;;2612976;54;20423;-65
2024/03/30 04:46:45;;;;;;;0.70;0.70;;;20.50;1.00;;;;;;2611601;47;20538;-65
2024/03/30 04:49:11;;;;;;;0.70;0.60;;;20.50;1.00;;;;;;2612671;54;20170;-65
2024/03/30 04:51:37;;;;;;;0.70;0.67;;;20.50;1.00;;;;;;2613104;39;20663;-65
2024/03/30 04:54:03;;;;;;;0.70;0.70;;;20.50;1.00;;;;;;2612443;47;20194;-65
2024/03/30 04:56:28;;;;;;;0.63;0.60;;;20.50;1.00;;;;;;2611663;47;20203;-66
2024/03/30 04:58:54;;;;;;;0.70;0.60;;;20.50;1.00;;;;;;2612426;54;20163;-65
2024/03/30 05:01:20;;;;;;;0.70;0.50;;;20.50;1.00;;;;;;2612084;54;20151;-66
2024/03/30 05:03:46;;;;;;;0.60;0.50;;;20.50;1.00;;;;;;2611755;54;20181;-65
2024/03/30 05:06:11;;;;;;;0.70;0.50;;;20.50;1.00;;;;;;2612582;54;20193;-66
2024/03/30 05:08:37;;;;;;;0.70;0.60;;;20.50;1.00;;;;;;2612940;47;20154;-65
2024/03/30 05:11:03;;;;;;;0.70;0.60;;;20.50;1.00;;;;;;2613343;47;20182;-65
2024/03/30 05:13:29;;;;;;;0.70;0.53;;;20.50;1.00;;;;;;2613532;54;20174;-66
2024/03/30 05:15:54;;;;;;;0.70;0.60;;;20.50;1.00;;;;;;2613790;39;20576;-64
2024/03/30 05:18:21;;;;;;;0.67;0.57;;;20.40;1.00;;;;;;2613891;39;20570;-63
2024/03/30 05:21:01;;;;;;;0.70;0.60;;;20.50;1.00;;;;;;2613258;39;21253;-63
2024/03/30 05:23:31;;;;;;;0.60;0.53;;;20.50;1.00;;;;;;2613240;54;20427;-62
2024/03/30 05:25:58;;;;;;;0.60;0.50;;;20.50;1.00;;;;;;2613010;54;20407;-63
2024/03/30 05:28:29;;;;;;;0.60;0.50;;;20.40;1.00;;;;;;2612946;54;20483;-64
2024/03/30 05:30:56;;;;;;;0.70;0.60;;;20.50;1.00;;;;;;2613615;50;20505;-61
2024/03/30 05:33:26;;;;;;;0.70;0.60;;;20.50;1.00;;;;;;2613244;54;20451;-63
2024/03/30 05:35:53;;;;;;;0.60;0.60;;;20.40;1.00;;;;;;2612782;39;20732;-63
2024/03/30 05:38:19;;;;;;;0.70;0.60;;;20.50;1.00;;;;;;2614160;39;20744;-63
2024/03/30 05:40:47;;;;;;;0.70;0.50;;;20.40;1.00;;;;;;2613579;54;20408;-62
2024/03/30 05:43:13;;;;;;;0.67;0.50;;;20.40;1.00;;;;;;2613523;54;20395;-62
2024/03/30 05:45:41;;;;;;;0.60;0.50;;;20.40;1.00;;;;;;2613263;54;21031;-63
2024/03/30 05:48:08;;;;;;;0.60;0.60;;;20.40;1.00;;;;;;2613601;39;20817;-62
2024/03/30 05:50:34;;;;;;;0.60;0.60;;;20.40;1.00;;;;;;2612802;54;20479;-63
2024/03/30 05:53:01;;;;;;;0.70;0.70;;;20.40;1.00;;;;;;2613031;54;20447;-62
2024/03/30 05:55:27;;;;;;;0.70;0.50;;;20.40;1.00;;;;;;2612529;54;20446;-62
2024/03/30 05:57:55;;;;;;;0.70;0.60;;;20.40;1.00;;;;;;2612455;47;20423;-62
2024/03/30 06:00:22;;;;;;;0.70;0.60;;;20.40;1.00;;;;;;2611874;54;20466;-65
2024/03/30 06:02:48;;;;;;;0.70;0.60;;;20.40;1.00;;;;;;2612055;54;20423;-63
2024/03/30 06:05:14;;;;;;;0.70;0.60;;;20.40;1.00;;;;;;2612759;54;21021;-62
2024/03/30 06:07:41;;;;;;;0.70;0.60;;;20.40;1.00;;;;;;2612959;54;20949;-62
2024/03/30 06:10:08;;;;;;;0.70;0.60;;;20.40;1.00;;;;;;2612995;54;20438;-61
2024/03/30 06:12:35;;;;;;;0.70;0.70;;;20.40;1.00;;;;;;2613586;39;20960;-63
2024/03/30 06:15:02;;;;;;;0.67;0.50;;;20.40;1.00;;;;;;2613140;46;20422;-66
2024/03/30 06:17:27;;;;;;;0.70;0.60;;;20.40;1.00;;;;;;2612452;54;20415;-66
2024/03/30 06:19:55;;;;;;;0.70;0.70;;;20.40;1.00;;;;;;2612937;54;20540;-66
2024/03/30 06:22:23;;;;;;;0.70;0.50;;;20.40;1.00;;;;;;2612409;54;21033;-66
2024/03/30 06:24:49;;;;;;;0.70;0.60;;;20.40;1.00;;;;;;2612875;54;20959;-72
2024/03/30 06:27:14;;;;;;;0.67;0.50;;;20.40;1.00;;;;;;2614123;54;20404;-73
2024/03/30 06:29:40;;;;;;;0.70;0.50;;;20.40;1.00;;;;;;2613483;47;20163;-73
2024/03/30 06:32:06;;;;;;;0.70;0.70;;;20.40;1.00;;;;;;2614232;50;20150;-73
2024/03/30 06:34:32;;;;;;;0.70;0.60;;;20.40;1.00;;;;;;2613550;39;20539;-63
2024/03/30 06:36:58;;;;;;;0.70;0.60;;;20.40;1.00;;;;;;2613993;54;20163;-73
2024/03/30 06:39:24;;;;;;;0.70;0.60;;;20.40;1.00;;;;;;2613149;54;20434;-72
2024/03/30 06:44:34;;;;;;;0.60;0.50;;;20.40;1.00;;;;;;2613934;39;20541;-72
2024/03/30 06:46:59;;;;;;;0.70;0.60;;;20.40;1.00;;;;;;2613502;47;20507;-72
2024/03/30 06:49:25;;;;;;;0.63;0.50;;;20.40;1.00;;;;;;2612595;54;20166;-71
2024/03/30 06:51:51;;;;;;;0.70;0.60;;;20.50;1.00;;;;;;2614125;39;20615;-72
2024/03/30 06:54:17;;;;;;;0.70;0.60;;;20.50;1.00;;;;;;2614030;54;20198;-73
2024/03/30 06:56:43;;;;;;;1.33;1.23;;;20.40;1.00;;;;;;2614161;54;20419;-73
2024/03/30 06:59:09;;;;;;;0.60;0.50;;;20.40;1.00;;;;;;2613029;39;20991;-72
2024/03/30 07:01:35;;;;;;;0.70;0.60;;;20.50;1.00;;;;;;2613782;54;20151;-73
2024/03/30 07:04:01;;;;;;;0.60;0.50;;;20.50;1.00;;;;;;2614093;39;20814;-73
2024/03/30 07:06:27;;;;;;;0.70;0.60;;;20.40;1.00;;;;;;2614022;47;20162;-72
2024/03/30 07:08:56;;;;;;;0.70;0.60;;;20.50;1.00;;;;;;2613959;54;20485;-72
2024/03/30 07:11:23;;;;;;;0.70;0.60;;;20.50;1.00;;;;;;2614128;39;20552;-72
2024/03/30 07:13:49;;;;;;;0.60;0.50;;;20.50;1.00;;;;;;2613303;54;20415;-74
2024/03/30 07:16:15;;;;;;;0.70;0.60;;;20.50;1.00;;;;;;2613722;47;20447;-73
2024/03/30 07:18:42;;;;;;;0.60;0.50;;;20.40;1.00;;;;;;2612391;54;20435;-72
2024/03/30 07:21:08;;;;;;;0.70;0.60;;;20.40;1.00;;;;;;2613738;54;20965;-73
2024/03/30 07:23:34;;;;;;;0.80;0.70;;;20.50;1.00;;;;;;2614040;54;20539;-72
2024/03/30 07:26:06;;;;;;;0.60;0.40;;;20.50;1.00;;;;;;2612414;54;20170;-62
2024/03/30 07:28:32;;;;;;;0.60;0.50;;;20.50;1.00;;;;;;2612287;47;20162;-62
2024/03/30 07:31:05;;;;;;;0.60;0.50;;;20.40;1.00;;;;;;2612804;54;20415;-62
2024/03/30 07:33:31;;;;;;;0.60;0.43;;;20.40;1.00;;;;;;2613085;54;20416;-62
2024/03/30 07:35:57;;;;;;;0.70;0.60;;;20.40;1.00;;;;;;2613061;54;20412;-63
2024/03/30 07:38:29;;;;;;;0.63;0.50;;;20.40;1.00;;;;;;2611759;54;20530;-63
2024/03/30 07:40:55;;;;;;;0.60;0.50;;;20.40;1.00;;;;;;2613123;54;20162;-63
2024/03/30 07:43:21;;;;;;;0.70;0.50;;;20.40;1.00;;;;;;2613294;54;20526;-63
2024/03/30 07:45:47;;;;;;;0.60;0.50;;;20.40;1.00;;;;;;2612680;47;20408;-59
2024/03/30 07:48:13;;;;;;;0.60;0.50;;;20.40;1.00;;;;;;2612868;39;21116;-60
2024/03/30 07:50:38;;;;;;;0.60;0.50;;;20.40;1.00;;;;;;2613133;54;20159;-59
2024/03/30 07:53:04;;;;;;;0.60;0.40;;;20.40;1.00;;;;;;2612522;54;20250;-61
2024/03/30 07:55:31;;;;;;;0.60;0.50;;;20.40;1.00;;;;;;2612695;54;20178;-60
2024/03/30 07:57:57;;;;;;;0.70;0.50;;;20.40;1.00;;;;;;2612768;47;20408;-60
2024/03/30 08:00:23;;;;;;;0.70;0.60;;;20.50;1.00;;;;;;2612285;54;21097;-59
2024/03/30 08:02:49;;;;;;;0.70;0.50;;;20.40;1.00;;;;;;2612686;54;20696;-59
2024/03/30 08:05:16;;;;;;;0.60;0.50;;;20.40;1.00;;;;;;2612286;54;20481;-59
2024/03/30 08:07:41;;;;;;;0.60;0.50;;;20.40;1.00;;;;;;2612210;54;20171;-59
2024/03/30 08:10:07;;;;;;;0.60;0.50;;;20.40;1.00;;;;;;2612648;47;20491;-59
2024/03/30 08:12:33;;;;;;;0.60;0.50;;;20.40;1.00;;;;;;2612942;47;20186;-59
2024/03/30 08:14:59;;;;;;;0.60;0.40;;;20.40;1.00;;;;;;2613063;54;20421;-60
2024/03/30 08:17:24;;;;;;;0.60;0.50;;;20.40;1.00;;;;;;2612915;54;20664;-60
2024/03/30 08:19:50;;;;;;;0.60;0.50;;;20.50;1.00;;;;;;2611974;54;20205;-59
2024/03/30 08:22:16;;;;;;;0.60;0.50;;;20.50;1.00;;;;;;2612307;54;20174;-59
2024/03/30 08:24:42;;;;;;;0.60;0.50;;;20.50;1.00;;;;;;2612674;39;20418;-59
2024/03/30 08:27:07;;;;;;;0.60;0.50;;;20.50;1.00;;;;;;2612401;47;20462;-59
2024/03/30 08:29:33;;;;;;;0.63;0.50;;;20.50;1.00;;;;;;2613417;54;20206;-59
2024/03/30 08:31:59;;;;;;;0.60;0.50;;;20.50;1.00;;;;;;2613398;39;20566;-59
2024/03/30 08:34:25;;;;;;;0.60;0.50;;;20.50;1.00;;;;;;2612623;47;20250;-59
2024/03/30 08:36:51;;;;;;;0.60;0.40;;;20.50;1.00;;;;;;2612686;54;20151;-62
2024/03/30 08:39:16;;;;;;;0.70;0.50;;;20.50;1.00;;;;;;2613882;54;20391;-62
2024/03/30 08:41:42;;;;;;;0.60;0.40;;;20.60;1.00;;;;;;2612901;54;20748;-63
2024/03/30 08:44:08;;;;;;;0.60;0.50;;;20.60;1.00;;;;;;2613296;47;20174;-61
2024/03/30 08:46:33;;;;;;;0.67;0.50;;;20.60;1.00;;;;;;2613677;47;20159;-62
2024/03/30 08:49:06;;;;;;;0.60;0.47;;;20.70;1.00;;;;;;2612463;54;20234;-63
2024/03/30 08:51:32;;;;;;;0.60;0.50;;;20.60;1.00;;;;;;2613558;54;20162;-63
2024/03/30 08:54:07;;;;;;;1.47;1.37;;;20.70;1.00;;;;;;2613909;54;20450;-62
2024/03/30 08:56:33;;;;;;;0.60;0.50;;;20.70;1.00;;;;;;2613659;54;20423;-66
2024/03/30 08:58:59;;;;;;;0.60;0.50;;;20.70;1.00;;;;;;2612221;39;20876;-66
2024/03/30 09:01:27;;;;;;;0.60;0.40;;;20.70;1.00;;;;;;2613154;54;20423;-65
2024/03/30 09:03:53;;;;;;;0.60;0.50;;;20.70;1.00;;;;;;2613839;39;20804;-67
2024/03/30 09:06:18;;;;;;;0.60;0.40;;;20.70;1.00;;;;;;2613345;47;20951;-65
2024/03/30 09:08:44;;;;;;;0.60;0.40;;;20.80;1.00;;;;;;2613153;47;20692;-67
2024/03/30 09:11:10;;;;;;;0.60;0.50;;;20.80;1.00;;;;;;2613485;54;20286;-66
2024/03/30 09:13:37;;;;;;;0.60;0.50;;;20.80;1.00;;;;;;2613480;54;20246;-67
2024/03/30 09:16:04;;;;;;;0.60;0.50;;;20.80;1.00;;;;;;2612180;47;20412;-66
2024/03/30 09:18:30;;;;;;;0.60;0.50;;;20.80;1.00;;;;;;2613011;54;20419;-67
2024/03/30 09:20:58;;;;;;;0.60;0.50;;;20.80;1.00;;;;;;2613858;54;20423;-66
2024/03/30 09:23:26;;;;;;;0.60;0.50;;;20.80;1.00;;;;;;2612917;54;20770;-67
2024/03/30 09:25:53;;;;;;;0.60;0.50;;;20.80;1.00;;;;;;2613637;54;20483;-67
2024/03/30 09:28:18;;;;;;;0.60;0.50;;;20.80;1.00;;;;;;2613455;54;20423;-66
2024/03/30 09:30:44;;;;;;;0.60;0.40;;;20.80;1.00;;;;;;2613158;54;20515;-67
2024/03/30 09:33:10;;;;;;;0.60;0.50;;;20.70;1.00;;;;;;2612828;54;21058;-67
2024/03/30 09:35:39;;;;;;;0.60;0.50;;;20.80;1.00;;;;;;2613453;54;20147;-67
2024/03/30 09:38:04;;;;;;;0.60;0.47;;;20.80;1.00;;;;;;2612760;54;20174;-67
2024/03/30 09:40:32;;;;;;;0.60;0.40;;;20.80;1.00;;;;;;2612628;54;20415;-66
2024/03/30 09:42:59;;;;;;;0.60;0.40;;;20.80;1.00;;;;;;2612592;47;20163;-65
2024/03/30 09:45:26;;;;;;;0.60;0.50;;;20.80;1.00;;;;;;2614251;39;20825;-61
2024/03/30 09:47:55;;;;;;;0.60;0.50;;;20.90;1.00;;;;;;2613521;54;20416;-64
2024/03/30 09:50:22;;;;;;;0.60;0.40;;;20.90;1.00;;;;;;2612973;54;20408;-60
2024/03/30 09:52:50;;;;;;;0.60;0.40;;;20.90;1.00;;;;;;2612413;54;20546;-61
2024/03/30 09:55:17;;;;;;;0.60;0.40;;;20.90;1.00;;;;;;2612079;54;20423;-62
2024/03/30 09:57:47;;;;;;;0.60;0.47;;;20.90;1.00;;;;;;2613562;54;20509;-62
2024/03/30 10:00:14;;;;;;;0.70;0.60;;;20.90;1.00;;;;;;2612153;54;20434;-62
2024/03/30 10:02:40;;;;;;;0.60;0.40;;;20.80;1.00;;;;;;2613071;39;20854;-61
2024/03/30 10:05:10;;;;;;;0.60;0.50;;;20.80;1.00;;;;;;2612738;54;20518;-60
2024/03/30 10:07:57;;;;;;;0.60;0.50;;;20.80;1.00;;;;;;2613597;54;20427;-61
2024/03/30 10:10:23;;;;;;;0.60;0.40;;;20.80;1.00;;;;;;2612488;54;20487;-60
2024/03/30 10:13:00;;;;;;;0.60;0.40;;;20.80;1.00;;;;;;2613089;54;20969;-59
2024/03/30 10:15:31;;;;;;;0.60;0.40;;;20.80;1.00;;;;;;2613309;54;20443;-60
2024/03/30 10:17:57;;;;;;;0.60;0.40;;;20.80;1.00;;;;;;2613277;47;20444;-60
2024/03/30 10:20:23;;;;;;;0.60;0.40;;;20.80;1.00;;;;;;2613269;54;20408;-60
2024/03/30 10:22:49;;;;;;;0.60;0.40;;;20.80;1.00;;;;;;2613250;47;20174;-60
2024/03/30 10:25:15;;;;;;;0.60;0.40;;;20.80;1.00;;;;;;2613380;39;21180;-59
2024/03/30 10:27:41;;;;;;;0.60;0.40;;;20.80;1.00;;;;;;2613069;54;20581;-61
2024/03/30 10:30:07;;;;;;;0.60;0.50;;;20.80;1.00;;;;;;2613182;39;20797;-61
2024/03/30 10:32:37;;;;;;;0.60;0.40;;;20.80;1.00;;;;;;2613159;54;20744;-60
2024/03/30 10:35:07;;;;;;;0.60;0.50;;;20.80;1.00;;;;;;2612922;54;20419;-61
2024/03/30 10:37:34;;;;;;;0.60;0.40;;;20.80;1.00;;;;;;2613110;54;20976;-60
2024/03/30 10:40:07;;;;;;;0.60;0.40;;;20.80;1.00;;;;;;2613237;54;20416;-60
2024/03/30 10:42:33;;;;;;;0.60;0.40;;;20.80;1.00;;;;;;2613333;47;20415;-59
2024/03/30 10:45:01;;;;;;;0.60;0.40;;;20.80;1.00;;;;;;2612525;54;20399;-60
2024/03/30 10:47:30;;;;;;;0.60;0.40;;;20.80;1.00;;;;;;2612957;54;20177;-61
2024/03/30 10:49:57;;;;;;;0.60;0.47;;;20.80;1.00;;;;;;2614125;31;20887;-62
2024/03/30 10:52:24;;;;;;;0.60;0.40;;;20.80;1.00;;;;;;2613054;54;20419;-61
2024/03/30 10:54:52;;;;;;;0.60;0.50;;;20.80;1.00;;;;;;2613316;39;20803;-63
2024/03/30 10:57:17;;;;;;;0.60;0.50;;;20.80;1.00;;;;;;2613538;39;20855;-63
2024/03/30 10:59:45;;;;;;;0.60;0.40;;;20.80;1.00;;;;;;2612735;54;20415;-63
2024/03/30 11:02:20;;;;;;;0.60;0.40;;;20.80;1.00;;;;;;2611638;54;20166;-63
2024/03/30 11:04:46;;;;;;;0.60;0.50;;;20.80;1.00;;;;;;2612285;47;20442;-58
2024/03/30 11:07:14;;;;;;;0.60;0.40;;;20.80;1.00;;;;;;2612843;54;20527;-59
2024/03/30 11:09:42;;;;;;;0.60;0.50;;;20.80;1.00;;;;;;2614046;31;20879;-59
2024/03/30 11:12:11;;;;;;;0.60;0.40;;;20.80;1.00;;;;;;2612764;54;20411;-59
2024/03/30 11:14:38;;;;;;;0.60;0.50;;;20.80;1.00;;;;;;2612835;54;20418;-63
2024/03/30 11:17:13;;;;;;;0.60;0.40;;;20.80;1.00;;;;;;2613225;47;20438;-59
2024/03/30 11:19:46;;;;;;;0.60;0.40;;;20.80;1.00;;;;;;2612466;54;20383;-59
2024/03/30 11:22:30;;;;;;;0.80;0.80;;;20.70;1.00;;;;;;2612977;54;20426;-60
2024/03/30 11:24:59;;;;;;;0.60;0.40;;;20.70;1.00;;;;;;2612674;54;20977;-60
2024/03/30 11:27:33;;;;;;;0.60;0.50;;;20.70;1.00;;;;;;2613172;54;20403;-59
2024/03/30 11:30:29;;;;;;;0.60;0.40;;;20.70;1.00;;;;;;2612999;39;20823;-59
2024/03/30 11:33:17;;;;;;;0.60;0.40;;;20.70;1.00;;;;;;2612535;50;20427;-59
2024/03/30 11:35:59;;;;;;;0.60;0.40;;;20.70;1.00;;;;;;2613844;39;20892;-60
2024/03/30 11:38:29;;;;;;;0.63;0.50;;;20.70;1.00;;;;;;2613164;54;20941;-59
2024/03/30 11:41:01;;;;;;;0.60;0.50;;;20.70;1.00;;;;;;2612679;46;20519;-59
2024/03/30 11:43:27;;;;;;;0.60;0.40;;;20.70;1.00;;;;;;2612455;54;20428;-60
2024/03/30 11:45:54;;;;;;;0.60;0.50;;;20.70;1.00;;;;;;2612929;47;20407;-58
2024/03/30 11:48:20;;;;;;;0.60;0.50;;;20.70;1.00;;;;;;2613271;51;20431;-60
2024/03/30 11:50:46;;;;;;;0.60;0.40;;;20.70;1.00;;;;;;2612962;47;20427;-59
2024/03/30 11:53:16;;;;;;;0.60;0.40;;;20.70;1.00;;;;;;2613174;54;20478;-59
2024/03/30 11:55:44;;;;;;;0.60;0.40;;;20.70;1.00;;;;;;2611709;54;20423;-59
2024/03/30 11:58:20;;;;;;;0.60;0.40;;;20.70;1.00;;;;;;2612959;47;20422;-58
2024/03/30 12:00:53;;;;;;;0.60;0.50;;;20.70;1.00;;;;;;2612275;54;20419;-59
2024/03/30 12:03:19;;;;;;;0.70;0.50;;;20.70;1.00;;;;;;2612315;54;20956;-59
2024/03/30 12:05:47;;;;;;;0.70;0.40;;;20.70;1.00;;;;;;2612621;54;20446;-63
2024/03/30 12:08:14;;;;;;;0.60;0.40;;;20.70;1.00;;;;;;2612874;54;20439;-62
2024/03/30 12:10:51;;;;;;;0.60;0.40;;;20.70;1.00;;;;;;2612402;54;20447;-62
2024/03/30 12:13:23;;;;;;;0.67;0.50;;;20.70;1.00;;;;;;2612760;54;20421;-63
2024/03/30 12:15:50;;;;;;;0.60;0.40;;;20.70;1.00;;;;;;2612315;54;20454;-62
2024/03/30 12:18:16;;;;;;;0.60;0.40;;;20.70;1.00;;;;;;2613208;47;20399;-61
2024/03/30 12:20:46;;;;;;;0.60;0.40;;;20.70;1.00;;;;;;2613139;54;20424;-62
2024/03/30 12:23:12;;;;;;;0.60;0.50;;;20.70;1.00;;;;;;2611877;54;20957;-63
2024/03/30 12:25:42;;;;;;;0.60;0.40;;;20.70;1.00;;;;;;2612600;54;20511;-66
2024/03/30 12:28:09;;;;;;;0.60;0.40;;;20.70;1.00;;;;;;2613302;39;20797;-66
2024/03/30 12:30:45;;;;;;;0.60;0.40;;;20.70;1.00;;;;;;2613411;47;20408;-67
2024/03/30 12:33:11;;;;;;;0.60;0.40;;;20.70;1.00;;;;;;2612808;47;20395;-66
2024/03/30 12:35:37;;;;;;;0.60;0.50;;;20.70;1.00;;;;;;2611856;47;20442;-66
2024/03/30 12:38:06;;;;;;;0.60;0.40;;;20.70;1.00;;;;;;2613047;54;20546;-67
2024/03/30 12:40:35;;;;;;;0.60;0.40;;;20.70;1.00;;;;;;2612866;47;20173;-67
2024/03/30 12:43:04;;;;;;;0.60;0.50;;;20.70;1.00;;;;;;2612231;39;20919;-65
2024/03/30 12:45:31;;;;;;;1.33;1.23;;;20.70;1.00;;;;;;2612444;47;20515;-66
2024/03/30 12:47:57;;;;;;;0.60;0.50;;;20.70;1.00;;;;;;2611807;54;21035;-66
2024/03/30 12:50:24;;;;;;;0.60;0.50;;;20.70;1.00;;;;;;2612848;54;20422;-67
2024/03/30 12:53:00;;;;;;;0.70;0.57;;;20.70;1.00;;;;;;2612669;39;20812;-66
2024/03/30 12:55:27;;;;;;;0.60;0.40;;;20.70;1.00;;;;;;2612299;54;20578;-66
2024/03/30 12:57:54;;;;;;;0.60;0.40;;;20.70;1.00;;;;;;2611919;47;20399;-66
2024/03/30 13:00:19;;;;;;;0.60;0.40;;;20.70;1.00;;;;;;2612546;54;20526;-66